Aeroporto :
LOGIN :

Iscrizione | Disclaimer

   EN    FR    IT 

 










Sommario :    VFR   VFR Marginale   IFR   IFR Intensivo   IFR Molto Intensivo
Visibilità : 
Base nubi : 
>= 8 km
>= 3000ft
5 / 8 km
1000 / 3000 ft
1500m / 5 km
500 / 1000 ft
800 / 1500m
200 / 500 ft
< 800m
< 200 ft
Simboli :   Temporali  Nebbia  Neve Forte  Precipitazioni Forti  Vento > 20 kt
SIGMETs :   Varie  Temporali  Ghiacco  Turbolenza  Onda orograficha  Ceneri Vulcaniche







- Altitudine del aeroporto : 74 ft
- Codice IATA : LRH
- Carte del aeroporto


LFBH - La Rochelle Ile de Ré

ULTIMO METAR :
  • 240230Z AUTO 26005KT 9999 FEW005 BKN170 OVC190 22/21 Q1014 TEMPO BKN005

METARs OBSOLETI :
  • 240200Z AUTO VRB03KT 9999 SCT005 SCT170 OVC190 22/21 Q1014 TEMPO 27015G25KT SCT100CB
  • 240130Z AUTO 28006KT 9999 BKN007 BKN180 OVC200 22/21 Q1014 TEMPO 27015G25KT SCT100CB
  • 240100Z AUTO 26005KT 9999 FEW007 OVC180 22/21 Q1015 TEMPO 27015G25KT SCT100CB
  • 240030Z AUTO 27003KT 250V320 CAVOK 22/20 Q1014 TEMPO 27015G25KT SCT100CB
  • 240000Z AUTO 26005KT CAVOK 22/21 Q1014 TEMPO 27015G25KT SCT100CB

TAF TAF LFBH
Valido dal 24 a 00 ore il 25 a 00 ore UTC


232300Z 2400/2424 30010KT CAVOK
PROB40
TEMPO 2400/2403 27015G25KT -SHRA SCT100CB
PROB30
TEMPO 2401/2408 BKN005
BECMG 2402/2404 VRB02KT
BECMG 2412/2414 30008KT
BECMG 2422/2424 05005KT
ATIS : +33 5 46 00 13 92
Nessun NOTAM noto per questo aeroporto.



MetMap, La meteo Aeronautica in un colpo d'occhio ! - Copyright ORBIFLY Dicembre 2007 - Disclaimer

ORBIFLY MET'MAP TEAM :

Programmazione e sviluppo : Alexandra Zaïnal
Concezione e sviluppo : Baudouin d'Aumeries
Co-Programmazione e sviluppo : Marc-Olivier Méhu
Supporto tecnico e logistico : Manuel Goepfert
Aiuto per la traduzione : Arnaldo La Scala

Contatto : metmap@orbifly.com




FONTI E CREDITI :

   NOAA